sensor_id;sensor_type;location;lat;lon;timestamp;pressure;altitude;pressure_sealevel;temperature;humidity
84653;BME280;74883;48.882;2.092;2023-12-28T00:01:22;101120.28;;;10.35;78.34
84653;BME280;74883;48.882;2.092;2023-12-28T00:03:48;101125.00;;;10.27;79.05
84653;BME280;74883;48.882;2.092;2023-12-28T00:06:14;101123.66;;;10.37;78.93
84653;BME280;74883;48.882;2.092;2023-12-28T00:08:40;101124.19;;;10.26;79.24
84653;BME280;74883;48.882;2.092;2023-12-28T00:11:06;101130.59;;;10.19;79.66
84653;BME280;74883;48.882;2.092;2023-12-28T00:13:31;101132.78;;;10.27;79.26
84653;BME280;74883;48.882;2.092;2023-12-28T00:15:56;101131.34;;;10.21;79.53
84653;BME280;74883;48.882;2.092;2023-12-28T00:18:21;101138.38;;;10.19;79.84
84653;BME280;74883;48.882;2.092;2023-12-28T00:20:47;101137.41;;;10.22;79.92
84653;BME280;74883;48.882;2.092;2023-12-28T00:23:15;101131.34;;;10.21;79.98
84653;BME280;74883;48.882;2.092;2023-12-28T00:25:45;101147.56;;;10.26;80.00
84653;BME280;74883;48.882;2.092;2023-12-28T00:28:10;101153.75;;;10.24;79.97
84653;BME280;74883;48.882;2.092;2023-12-28T00:30:36;101135.47;;;10.25;80.08
84653;BME280;74883;48.882;2.092;2023-12-28T00:33:01;101142.44;;;10.25;79.83
84653;BME280;74883;48.882;2.092;2023-12-28T00:35:27;101143.19;;;10.27;80.41
84653;BME280;74883;48.882;2.092;2023-12-28T00:37:53;101142.19;;;10.29;79.70
84653;BME280;74883;48.882;2.092;2023-12-28T00:40:18;101143.75;;;10.33;79.81
84653;BME280;74883;48.882;2.092;2023-12-28T00:42:43;101135.34;;;10.28;79.58
84653;BME280;74883;48.882;2.092;2023-12-28T00:45:09;101144.22;;;10.24;80.07
84653;BME280;74883;48.882;2.092;2023-12-28T00:47:35;101141.44;;;10.27;80.26
84653;BME280;74883;48.882;2.092;2023-12-28T00:50:00;101148.25;;;10.30;80.06
84653;BME280;74883;48.882;2.092;2023-12-28T00:52:25;101148.25;;;10.30;80.36
84653;BME280;74883;48.882;2.092;2023-12-28T00:54:51;101143.28;;;10.25;80.21
84653;BME280;74883;48.882;2.092;2023-12-28T00:57:16;101134.00;;;10.20;80.37
84653;BME280;74883;48.882;2.092;2023-12-28T00:59:41;101133.66;;;10.27;80.07
84653;BME280;74883;48.882;2.092;2023-12-28T01:02:07;101137.19;;;10.26;80.30
84653;BME280;74883;48.882;2.092;2023-12-28T01:04:32;101137.19;;;10.26;80.18
84653;BME280;74883;48.882;2.092;2023-12-28T01:06:58;101132.97;;;10.24;80.22
84653;BME280;74883;48.882;2.092;2023-12-28T01:09:27;101137.47;;;10.20;80.44
84653;BME280;74883;48.882;2.092;2023-12-28T01:11:52;101137.47;;;10.20;80.58
84653;BME280;74883;48.882;2.092;2023-12-28T01:14:17;101132.88;;;10.25;80.36
84653;BME280;74883;48.882;2.092;2023-12-28T01:16:43;101125.41;;;10.19;80.75
84653;BME280;74883;48.882;2.092;2023-12-28T01:19:09;101134.94;;;10.19;80.76
84653;BME280;74883;48.882;2.092;2023-12-28T01:21:34;101128.00;;;10.19;80.68
84653;BME280;74883;48.882;2.092;2023-12-28T01:24:00;101137.41;;;10.22;80.77
84653;BME280;74883;48.882;2.092;2023-12-28T01:26:25;101140.69;;;10.25;80.56
84653;BME280;74883;48.882;2.092;2023-12-28T01:28:50;101132.75;;;10.28;80.69
84653;BME280;74883;48.882;2.092;2023-12-28T01:31:16;101122.63;;;10.22;81.24
84653;BME280;74883;48.882;2.092;2023-12-28T01:33:41;101128.69;;;10.23;80.81
84653;BME280;74883;48.882;2.092;2023-12-28T01:36:20;101145.25;;;10.20;80.89
84653;BME280;74883;48.882;2.092;2023-12-28T01:38:46;101141.53;;;10.26;80.79
84653;BME280;74883;48.882;2.092;2023-12-28T01:41:11;101151.28;;;10.21;80.74
84653;BME280;74883;48.882;2.092;2023-12-28T01:43:41;101154.59;;;10.24;81.08
84653;BME280;74883;48.882;2.092;2023-12-28T01:46:09;101156.63;;;10.18;81.01
84653;BME280;74883;48.882;2.092;2023-12-28T01:48:35;101165.50;;;10.14;81.26
84653;BME280;74883;48.882;2.092;2023-12-28T01:51:02;101160.38;;;10.12;81.58
84653;BME280;74883;48.882;2.092;2023-12-28T01:53:28;101175.78;;;10.15;81.78
84653;BME280;74883;48.882;2.092;2023-12-28T01:55:53;101170.88;;;10.09;81.76
84653;BME280;74883;48.882;2.092;2023-12-28T01:58:20;101173.38;;;10.11;81.51
84653;BME280;74883;48.882;2.092;2023-12-28T02:00:45;101172.69;;;10.07;81.82
84653;BME280;74883;48.882;2.092;2023-12-28T02:03:12;101171.84;;;10.07;81.60
84653;BME280;74883;48.882;2.092;2023-12-28T02:05:37;101176.38;;;10.03;81.87
84653;BME280;74883;48.882;2.092;2023-12-28T02:08:03;101175.72;;;9.98;81.87
84653;BME280;74883;48.882;2.092;2023-12-28T02:10:28;101181.81;;;9.97;82.26
84653;BME280;74883;48.882;2.092;2023-12-28T02:12:54;101179.31;;;9.96;82.20
84653;BME280;74883;48.882;2.092;2023-12-28T02:15:20;101176.00;;;9.92;82.21
84653;BME280;74883;48.882;2.092;2023-12-28T02:18:02;101183.97;;;9.89;82.59
84653;BME280;74883;48.882;2.092;2023-12-28T02:20:30;101191.78;;;9.88;82.60
84653;BME280;74883;48.882;2.092;2023-12-28T02:22:57;101187.44;;;9.88;82.39
84653;BME280;74883;48.882;2.092;2023-12-28T02:25:23;101194.19;;;9.92;82.28
84653;BME280;74883;48.882;2.092;2023-12-28T02:27:49;101194.47;;;9.86;82.37
84653;BME280;74883;48.882;2.092;2023-12-28T02:30:21;101186.59;;;9.88;82.53
84653;BME280;74883;48.882;2.092;2023-12-28T02:33:11;101195.88;;;9.93;82.41
84653;BME280;74883;48.882;2.092;2023-12-28T02:36:07;101190.97;;;9.87;82.90
84653;BME280;74883;48.882;2.092;2023-12-28T02:38:36;101183.78;;;9.92;83.00
84653;BME280;74883;48.882;2.092;2023-12-28T02:41:03;101187.25;;;9.93;82.77
84653;BME280;74883;48.882;2.092;2023-12-28T02:43:29;101189.97;;;9.90;82.52
84653;BME280;74883;48.882;2.092;2023-12-28T02:45:54;101185.63;;;9.90;82.83
84653;BME280;74883;48.882;2.092;2023-12-28T02:48:20;101189.84;;;9.93;82.77
84653;BME280;74883;48.882;2.092;2023-12-28T02:50:45;101189.84;;;9.93;82.98
84653;BME280;74883;48.882;2.092;2023-12-28T02:53:11;101188.31;;;9.89;83.10
84653;BME280;74883;48.882;2.092;2023-12-28T02:55:37;101188.38;;;9.87;83.14
84653;BME280;74883;48.882;2.092;2023-12-28T02:58:02;101191.19;;;9.83;82.89
84653;BME280;74883;48.882;2.092;2023-12-28T03:00:28;101186.97;;;9.80;83.52
84653;BME280;74883;48.882;2.092;2023-12-28T03:02:53;101193.97;;;9.78;83.43
84653;BME280;74883;48.882;2.092;2023-12-28T03:05:18;101185.50;;;9.93;83.07
84653;BME280;74883;48.882;2.092;2023-12-28T03:07:44;101181.34;;;9.89;83.57
84653;BME280;74883;48.882;2.092;2023-12-28T03:10:10;101190.91;;;9.89;83.13
84653;BME280;74883;48.882;2.092;2023-12-28T03:12:38;101192.00;;;9.83;83.50
84653;BME280;74883;48.882;2.092;2023-12-28T03:15:05;101193.56;;;9.87;83.67
84653;BME280;74883;48.882;2.092;2023-12-28T03:17:30;101192.00;;;9.83;83.73
84653;BME280;74883;48.882;2.092;2023-12-28T03:19:58;101198.25;;;9.79;83.42
84653;BME280;74883;48.882;2.092;2023-12-28T03:22:24;101197.38;;;9.80;83.28
84653;BME280;74883;48.882;2.092;2023-12-28T03:24:49;101194.97;;;9.94;83.07
84653;BME280;74883;48.882;2.092;2023-12-28T03:27:15;101198.25;;;9.98;83.13
84653;BME280;74883;48.882;2.092;2023-12-28T03:29:41;101200.34;;;9.90;83.22
84653;BME280;74883;48.882;2.092;2023-12-28T03:32:07;101195.16;;;9.90;83.27
84653;BME280;74883;48.882;2.092;2023-12-28T03:34:33;101184.16;;;9.85;83.22
84653;BME280;74883;48.882;2.092;2023-12-28T03:36:59;101186.97;;;9.80;83.58
84653;BME280;74883;48.882;2.092;2023-12-28T03:39:24;101185.91;;;9.84;83.64
84653;BME280;74883;48.882;2.092;2023-12-28T03:41:50;101189.56;;;9.80;83.28
84653;BME280;74883;48.882;2.092;2023-12-28T03:44:15;101182.81;;;9.76;83.42
84653;BME280;74883;48.882;2.092;2023-12-28T03:46:40;101183.59;;;9.78;83.65
84653;BME280;74883;48.882;2.092;2023-12-28T03:49:06;101183.75;;;9.75;83.87
84653;BME280;74883;48.882;2.092;2023-12-28T03:51:31;101185.50;;;9.74;83.84
84653;BME280;74883;48.882;2.092;2023-12-28T03:53:57;101178.56;;;9.75;84.01
84653;BME280;74883;48.882;2.092;2023-12-28T03:56:26;101176.09;;;9.72;84.25
84653;BME280;74883;48.882;2.092;2023-12-28T03:58:51;101180.22;;;9.76;83.89
84653;BME280;74883;48.882;2.092;2023-12-28T04:01:18;101183.09;;;9.70;83.90
84653;BME280;74883;48.882;2.092;2023-12-28T04:03:43;101189.06;;;9.72;84.63
84653;BME280;74883;48.882;2.092;2023-12-28T04:06:09;101183.09;;;9.70;83.68
84653;BME280;74883;48.882;2.092;2023-12-28T04:08:34;101189.00;;;9.73;84.02
84653;BME280;74883;48.882;2.092;2023-12-28T04:11:00;101184.81;;;9.71;84.14
84653;BME280;74883;48.882;2.092;2023-12-28T04:13:25;101189.28;;;9.67;83.62
84653;BME280;74883;48.882;2.092;2023-12-28T04:15:50;101189.63;;;9.78;83.76
84653;BME280;74883;48.882;2.092;2023-12-28T04:18:15;101187.44;;;9.69;83.59
84653;BME280;74883;48.882;2.092;2023-12-28T04:20:47;101183.53;;;9.61;84.09
84653;BME280;74883;48.882;2.092;2023-12-28T04:23:13;101181.13;;;9.56;84.35
84653;BME280;74883;48.882;2.092;2023-12-28T04:25:38;101179.44;;;9.55;84.64
84653;BME280;74883;48.882;2.092;2023-12-28T04:28:03;101177.91;;;9.51;84.75
84653;BME280;74883;48.882;2.092;2023-12-28T04:30:29;101175.22;;;9.53;84.35
84653;BME280;74883;48.882;2.092;2023-12-28T04:32:54;101178.69;;;9.53;84.27
84653;BME280;74883;48.882;2.092;2023-12-28T04:35:19;101175.94;;;9.56;84.45
84653;BME280;74883;48.882;2.092;2023-12-28T04:37:45;101177.69;;;9.56;84.45
84653;BME280;74883;48.882;2.092;2023-12-28T04:40:10;101178.53;;;9.56;84.47
84653;BME280;74883;48.882;2.092;2023-12-28T04:42:36;101162.13;;;9.56;84.21
84653;BME280;74883;48.882;2.092;2023-12-28T04:45:01;101157.78;;;9.56;84.44
84653;BME280;74883;48.882;2.092;2023-12-28T04:47:27;101156.09;;;9.55;84.30
84653;BME280;74883;48.882;2.092;2023-12-28T04:49:52;101151.44;;;9.62;83.95
84653;BME280;74883;48.882;2.092;2023-12-28T04:52:17;101148.03;;;9.61;83.87
84653;BME280;74883;48.882;2.092;2023-12-28T04:54:43;101143.63;;;9.63;83.76
84653;BME280;74883;48.882;2.092;2023-12-28T04:57:08;101136.25;;;9.73;83.64
84653;BME280;74883;48.882;2.092;2023-12-28T04:59:40;101143.09;;;9.74;83.25
84653;BME280;74883;48.882;2.092;2023-12-28T05:02:06;101154.63;;;9.68;83.83
84653;BME280;74883;48.882;2.092;2023-12-28T05:04:32;101153.72;;;9.69;83.23
84653;BME280;74883;48.882;2.092;2023-12-28T05:06:58;101161.50;;;9.69;83.35
84653;BME280;74883;48.882;2.092;2023-12-28T05:09:23;101161.78;;;9.63;83.59
84653;BME280;74883;48.882;2.092;2023-12-28T05:11:49;101158.69;;;9.55;83.62
84653;BME280;74883;48.882;2.092;2023-12-28T05:14:14;101162.44;;;9.68;83.39
84653;BME280;74883;48.882;2.092;2023-12-28T05:16:39;101161.63;;;9.66;83.46
84653;BME280;74883;48.882;2.092;2023-12-28T05:19:05;101178.69;;;9.72;83.02
84653;BME280;74883;48.882;2.092;2023-12-28T05:21:30;101174.25;;;9.55;83.94
84653;BME280;74883;48.882;2.092;2023-12-28T05:23:55;101173.63;;;9.50;83.76
84653;BME280;74883;48.882;2.092;2023-12-28T05:26:21;101171.75;;;9.54;84.00
84653;BME280;74883;48.882;2.092;2023-12-28T05:28:47;101171.88;;;9.51;83.88
84653;BME280;74883;48.882;2.092;2023-12-28T05:31:13;101168.63;;;9.46;83.94
84653;BME280;74883;48.882;2.092;2023-12-28T05:33:38;101166.81;;;9.48;84.40
84653;BME280;74883;48.882;2.092;2023-12-28T05:36:05;101163.97;;;9.54;84.18
84653;BME280;74883;48.882;2.092;2023-12-28T05:38:30;101177.19;;;9.48;84.08
84653;BME280;74883;48.882;2.092;2023-12-28T05:40:56;101176.50;;;9.44;84.19
84653;BME280;74883;48.882;2.092;2023-12-28T05:43:22;101183.38;;;9.45;84.12
84653;BME280;74883;48.882;2.092;2023-12-28T05:45:47;101179.28;;;9.40;83.97
84653;BME280;74883;48.882;2.092;2023-12-28T05:48:15;101176.81;;;9.37;84.20
84653;BME280;74883;48.882;2.092;2023-12-28T05:50:40;101172.81;;;9.30;84.45
84653;BME280;74883;48.882;2.092;2023-12-28T05:53:06;101180.59;;;9.30;84.46
84653;BME280;74883;48.882;2.092;2023-12-28T05:55:31;101179.06;;;9.26;84.75
84653;BME280;74883;48.882;2.092;2023-12-28T05:57:56;101193.84;;;9.24;84.77
84653;BME280;74883;48.882;2.092;2023-12-28T06:00:22;101193.00;;;9.23;84.85
84653;BME280;74883;48.882;2.092;2023-12-28T06:02:48;101194.06;;;9.19;84.96
84653;BME280;74883;48.882;2.092;2023-12-28T06:05:17;101197.53;;;9.18;85.34
84653;BME280;74883;48.882;2.092;2023-12-28T06:07:42;101203.78;;;9.14;85.45
84653;BME280;74883;48.882;2.092;2023-12-28T06:10:08;101200.84;;;9.22;85.02
84653;BME280;74883;48.882;2.092;2023-12-28T06:12:33;101207.91;;;9.18;85.07
84653;BME280;74883;48.882;2.092;2023-12-28T06:14:59;101210.59;;;9.17;84.95
84653;BME280;74883;48.882;2.092;2023-12-28T06:17:24;101206.28;;;9.16;84.44
84653;BME280;74883;48.882;2.092;2023-12-28T06:19:50;101211.63;;;9.13;85.19
84653;BME280;74883;48.882;2.092;2023-12-28T06:22:15;101205.84;;;9.06;84.83
84653;BME280;74883;48.882;2.092;2023-12-28T06:24:40;101197.16;;;9.07;84.86
84653;BME280;74883;48.882;2.092;2023-12-28T06:27:06;101191.97;;;9.07;85.27
84653;BME280;74883;48.882;2.092;2023-12-28T06:29:31;101196.28;;;9.08;85.41
84653;BME280;74883;48.882;2.092;2023-12-28T06:31:57;101199.69;;;9.08;85.13
84653;BME280;74883;48.882;2.092;2023-12-28T06:34:22;101197.91;;;9.11;85.28
84653;BME280;74883;48.882;2.092;2023-12-28T06:36:47;101194.66;;;9.05;84.89
84653;BME280;74883;48.882;2.092;2023-12-28T06:39:13;101187.38;;;9.14;85.40
84653;BME280;74883;48.882;2.092;2023-12-28T06:41:38;101191.13;;;9.27;84.77
84653;BME280;74883;48.882;2.092;2023-12-28T06:44:04;101198.97;;;9.25;84.23
84653;BME280;74883;48.882;2.092;2023-12-28T06:46:29;101191.25;;;9.24;85.19
84653;BME280;74883;48.882;2.092;2023-12-28T06:48:55;101190.09;;;9.31;84.80
84653;BME280;74883;48.882;2.092;2023-12-28T06:51:20;101195.28;;;9.31;84.38
84653;BME280;74883;48.882;2.092;2023-12-28T06:53:47;101199.88;;;9.24;84.71
84653;BME280;74883;48.882;2.092;2023-12-28T06:56:13;101204.44;;;9.19;85.10
84653;BME280;74883;48.882;2.092;2023-12-28T06:58:39;101213.28;;;9.14;84.89
84653;BME280;74883;48.882;2.092;2023-12-28T07:01:05;101213.44;;;9.11;85.68
84653;BME280;74883;48.882;2.092;2023-12-28T07:03:30;101221.06;;;9.14;85.21
84653;BME280;74883;48.882;2.092;2023-12-28T07:06:00;101225.59;;;9.08;85.70
84653;BME280;74883;48.882;2.092;2023-12-28T07:08:26;101230.78;;;9.08;85.39
84653;BME280;74883;48.882;2.092;2023-12-28T07:10:51;101230.56;;;9.15;85.83
84653;BME280;74883;48.882;2.092;2023-12-28T07:13:17;101232.63;;;9.06;85.43
84653;BME280;74883;48.882;2.092;2023-12-28T07:15:42;101231.53;;;9.12;85.66
84653;BME280;74883;48.882;2.092;2023-12-28T07:18:08;101235.28;;;9.05;85.90
84653;BME280;74883;48.882;2.092;2023-12-28T07:20:33;101232.78;;;9.03;85.70
84653;BME280;74883;48.882;2.092;2023-12-28T07:22:58;101239.38;;;9.11;86.01
84653;BME280;74883;48.882;2.092;2023-12-28T07:25:24;101234.34;;;9.06;85.96
84653;BME280;74883;48.882;2.092;2023-12-28T07:27:51;101242.34;;;9.01;86.33
84653;BME280;74883;48.882;2.092;2023-12-28T07:30:16;101248.38;;;9.02;86.33
84653;BME280;74883;48.882;2.092;2023-12-28T07:32:42;101237.69;;;9.09;85.75
84653;BME280;74883;48.882;2.092;2023-12-28T07:35:08;101244.69;;;9.07;86.08
84653;BME280;74883;48.882;2.092;2023-12-28T07:37:34;101246.22;;;9.12;86.02
84653;BME280;74883;48.882;2.092;2023-12-28T07:40:00;101241.06;;;9.12;86.19
84653;BME280;74883;48.882;2.092;2023-12-28T07:42:25;101241.91;;;9.12;86.10
84653;BME280;74883;48.882;2.092;2023-12-28T07:44:50;101246.50;;;9.05;85.62
84653;BME280;74883;48.882;2.092;2023-12-28T07:47:16;101243.13;;;9.03;85.96
84653;BME280;74883;48.882;2.092;2023-12-28T07:49:41;101239.97;;;9.17;85.85
84653;BME280;74883;48.882;2.092;2023-12-28T07:52:07;101240.16;;;9.13;85.83
84653;BME280;74883;48.882;2.092;2023-12-28T07:54:32;101242.09;;;9.07;85.70
84653;BME280;74883;48.882;2.092;2023-12-28T07:56:59;101248.94;;;9.08;86.04
84653;BME280;74883;48.882;2.092;2023-12-28T07:59:24;101255.19;;;9.04;86.00
84653;BME280;74883;48.882;2.092;2023-12-28T08:01:49;101255.94;;;9.06;85.97
84653;BME280;74883;48.882;2.092;2023-12-28T08:04:15;101260.13;;;9.11;86.57
84653;BME280;74883;48.882;2.092;2023-12-28T08:06:40;101257.38;;;9.14;86.07
84653;BME280;74883;48.882;2.092;2023-12-28T08:09:06;101251.31;;;9.15;85.46
84653;BME280;74883;48.882;2.092;2023-12-28T08:11:31;101241.78;;;9.15;85.82
84653;BME280;74883;48.882;2.092;2023-12-28T08:13:56;101252.84;;;9.19;85.97
84653;BME280;74883;48.882;2.092;2023-12-28T08:16:22;101257.19;;;9.18;85.94
84653;BME280;74883;48.882;2.092;2023-12-28T08:18:47;101242.34;;;9.22;86.23
84653;BME280;74883;48.882;2.092;2023-12-28T08:21:13;101253.44;;;9.25;85.88
84653;BME280;74883;48.882;2.092;2023-12-28T08:23:39;101242.41;;;9.20;85.87
84653;BME280;74883;48.882;2.092;2023-12-28T08:26:04;101245.84;;;9.21;85.99
84653;BME280;74883;48.882;2.092;2023-12-28T08:28:30;101250.63;;;9.30;85.78
84653;BME280;74883;48.882;2.092;2023-12-28T08:30:56;101247.28;;;9.28;85.44
84653;BME280;74883;48.882;2.092;2023-12-28T08:33:22;101249.81;;;9.29;85.75
84653;BME280;74883;48.882;2.092;2023-12-28T08:35:48;101256.88;;;9.26;85.79
84653;BME280;74883;48.882;2.092;2023-12-28T08:38:13;101252.34;;;9.31;85.43
84653;BME280;74883;48.882;2.092;2023-12-28T08:40:38;101255.13;;;9.26;85.48
84653;BME280;74883;48.882;2.092;2023-12-28T08:43:04;101261.88;;;9.30;85.23
84653;BME280;74883;48.882;2.092;2023-12-28T08:45:29;101248.03;;;9.30;85.49
84653;BME280;74883;48.882;2.092;2023-12-28T08:47:55;101256.78;;;9.27;85.53
84653;BME280;74883;48.882;2.092;2023-12-28T08:50:21;101252.06;;;9.37;85.31
84653;BME280;74883;48.882;2.092;2023-12-28T08:52:46;101253.88;;;9.35;85.13
84653;BME280;74883;48.882;2.092;2023-12-28T08:55:12;101265.03;;;9.37;85.09
84653;BME280;74883;48.882;2.092;2023-12-28T08:57:37;101260.50;;;9.42;85.17
84653;BME280;74883;48.882;2.092;2023-12-28T09:00:05;101262.25;;;9.41;85.20
84653;BME280;74883;48.882;2.092;2023-12-28T09:02:30;101269.91;;;9.44;85.33
84653;BME280;74883;48.882;2.092;2023-12-28T09:04:58;101279.31;;;9.47;85.17
84653;BME280;74883;48.882;2.092;2023-12-28T09:07:23;101280.94;;;9.49;85.23
84653;BME280;74883;48.882;2.092;2023-12-28T09:09:49;101286.81;;;9.53;85.15
84653;BME280;74883;48.882;2.092;2023-12-28T09:12:14;101285.59;;;9.61;85.20
84653;BME280;74883;48.882;2.092;2023-12-28T09:14:39;101295.91;;;9.63;85.02
84653;BME280;74883;48.882;2.092;2023-12-28T09:17:05;101289.19;;;9.77;84.00
84653;BME280;74883;48.882;2.092;2023-12-28T09:19:32;101291.94;;;9.74;84.34
84653;BME280;74883;48.882;2.092;2023-12-28T09:21:58;101292.00;;;9.73;84.52
84653;BME280;74883;48.882;2.092;2023-12-28T09:24:23;101304.22;;;9.71;84.93
84653;BME280;74883;48.882;2.092;2023-12-28T09:26:49;101300.81;;;9.69;85.50
84653;BME280;74883;48.882;2.092;2023-12-28T09:29:14;101301.75;;;9.68;85.73
84653;BME280;74883;48.882;2.092;2023-12-28T09:31:40;101299.16;;;9.68;86.27
84653;BME280;74883;48.882;2.092;2023-12-28T09:34:05;101310.19;;;9.73;85.71
84653;BME280;74883;48.882;2.092;2023-12-28T09:36:31;101317.88;;;9.74;85.87
84653;BME280;74883;48.882;2.092;2023-12-28T09:38:56;101311.84;;;9.74;86.05
84653;BME280;74883;48.882;2.092;2023-12-28T09:41:25;101309.19;;;9.75;86.76
84653;BME280;74883;48.882;2.092;2023-12-28T09:44:00;101310.94;;;9.75;86.36
84653;BME280;74883;48.882;2.092;2023-12-28T09:46:28;101297.03;;;9.76;86.76
84653;BME280;74883;48.882;2.092;2023-12-28T09:48:53;101290.19;;;9.75;86.84
84653;BME280;74883;48.882;2.092;2023-12-28T09:51:22;101296.00;;;9.80;86.29
84653;BME280;74883;48.882;2.092;2023-12-28T09:53:47;101282.22;;;9.78;86.10
84653;BME280;74883;48.882;2.092;2023-12-28T09:56:13;101295.38;;;9.75;86.25
84653;BME280;74883;48.882;2.092;2023-12-28T09:58:40;101293.53;;;9.77;85.64
84653;BME280;74883;48.882;2.092;2023-12-28T10:01:06;101290.03;;;9.78;85.59
84653;BME280;74883;48.882;2.092;2023-12-28T10:03:32;101294.97;;;9.84;85.41
84653;BME280;74883;48.882;2.092;2023-12-28T10:05:58;101301.44;;;9.94;84.85
84653;BME280;74883;48.882;2.092;2023-12-28T10:08:23;101295.41;;;9.94;84.55
84653;BME280;74883;48.882;2.092;2023-12-28T10:10:49;101280.66;;;9.94;83.90
84653;BME280;74883;48.882;2.092;2023-12-28T10:13:20;101285.69;;;9.97;84.11
84653;BME280;74883;48.882;2.092;2023-12-28T10:15:47;101276.88;;;10.01;84.06
84653;BME280;74883;48.882;2.092;2023-12-28T10:18:12;101290.13;;;9.95;84.10
84653;BME280;74883;48.882;2.092;2023-12-28T10:20:38;101281.50;;;9.95;84.07
84653;BME280;74883;48.882;2.092;2023-12-28T10:23:04;101282.22;;;9.98;83.65
84653;BME280;74883;48.882;2.092;2023-12-28T10:25:31;101273.56;;;9.98;83.80
84653;BME280;74883;48.882;2.092;2023-12-28T10:27:57;101282.78;;;10.05;83.12
84653;BME280;74883;48.882;2.092;2023-12-28T10:30:23;101273.81;;;10.12;83.20
84653;BME280;74883;48.882;2.092;2023-12-28T10:32:48;101269.50;;;10.29;82.13
84653;BME280;74883;48.882;2.092;2023-12-28T10:35:14;101277.47;;;10.26;82.00
84653;BME280;74883;48.882;2.092;2023-12-28T10:37:41;101276.72;;;10.24;81.91
84653;BME280;74883;48.882;2.092;2023-12-28T10:40:13;101274.66;;;10.31;81.96
84653;BME280;74883;48.882;2.092;2023-12-28T10:42:51;101280.06;;;10.45;81.15
84653;BME280;74883;48.882;2.092;2023-12-28T10:45:18;101274.63;;;10.50;81.05
84653;BME280;74883;48.882;2.092;2023-12-28T10:47:53;101270.97;;;10.54;80.58
84653;BME280;74883;48.882;2.092;2023-12-28T10:50:19;101276.31;;;10.51;80.81
84653;BME280;74883;48.882;2.092;2023-12-28T10:52:49;101272.50;;;10.58;80.38
84653;BME280;74883;48.882;2.092;2023-12-28T10:55:34;101275.28;;;10.55;80.58
84653;BME280;74883;48.882;2.092;2023-12-28T10:58:11;101271.75;;;10.56;79.91
84653;BME280;74883;48.882;2.092;2023-12-28T11:00:42;101258.88;;;10.53;79.77
84653;BME280;74883;48.882;2.092;2023-12-28T11:03:11;101256.44;;;10.50;80.02
84653;BME280;74883;48.882;2.092;2023-12-28T11:05:37;101242.25;;;10.57;79.82
84653;BME280;74883;48.882;2.092;2023-12-28T11:08:04;101245.28;;;10.48;80.18
84653;BME280;74883;48.882;2.092;2023-12-28T11:10:31;101248.47;;;10.53;79.95
84653;BME280;74883;48.882;2.092;2023-12-28T11:12:58;101258.88;;;10.53;80.02
84653;BME280;74883;48.882;2.092;2023-12-28T11:15:25;101256.22;;;10.54;79.34
84653;BME280;74883;48.882;2.092;2023-12-28T11:17:52;101245.28;;;10.65;79.02
84653;BME280;74883;48.882;2.092;2023-12-28T11:20:18;101237.03;;;10.74;78.68
84653;BME280;74883;48.882;2.092;2023-12-28T11:22:44;101242.25;;;10.74;78.85
84653;BME280;74883;48.882;2.092;2023-12-28T11:25:17;101242.19;;;10.75;78.93
84653;BME280;74883;48.882;2.092;2023-12-28T11:27:44;101234.78;;;10.85;78.48
84653;BME280;74883;48.882;2.092;2023-12-28T11:30:10;101241.78;;;10.83;78.32
84653;BME280;74883;48.882;2.092;2023-12-28T11:32:36;101242.25;;;10.74;78.94
84653;BME280;74883;48.882;2.092;2023-12-28T11:35:01;101238.97;;;10.70;79.01
84653;BME280;74883;48.882;2.092;2023-12-28T11:37:29;101242.66;;;10.83;78.06
84653;BME280;74883;48.882;2.092;2023-12-28T11:39:56;101231.97;;;10.89;77.76
84653;BME280;74883;48.882;2.092;2023-12-28T11:42:23;101232.00;;;10.88;77.88
84653;BME280;74883;48.882;2.092;2023-12-28T11:44:54;101232.78;;;10.90;77.52
84653;BME280;74883;48.882;2.092;2023-12-28T11:47:24;101226.56;;;10.92;77.64
84653;BME280;74883;48.882;2.092;2023-12-28T11:49:50;101240.91;;;11.01;77.41
84653;BME280;74883;48.882;2.092;2023-12-28T11:52:28;101238.69;;;10.93;77.90
84653;BME280;74883;48.882;2.092;2023-12-28T11:54:55;101233.63;;;10.90;77.67
84653;BME280;74883;48.882;2.092;2023-12-28T11:57:21;101230.94;;;10.92;77.93
84653;BME280;74883;48.882;2.092;2023-12-28T11:59:51;101217.94;;;10.92;77.89
84653;BME280;74883;48.882;2.092;2023-12-28T12:02:18;101215.56;;;11.04;77.50
84653;BME280;74883;48.882;2.092;2023-12-28T12:04:44;101215.72;;;11.01;77.94
84653;BME280;74883;48.882;2.092;2023-12-28T12:07:09;101206.16;;;11.02;77.87
84653;BME280;74883;48.882;2.092;2023-12-28T12:09:34;101201.72;;;11.04;77.41
84653;BME280;74883;48.882;2.092;2023-12-28T12:12:01;101204.06;;;11.08;77.18
84653;BME280;74883;48.882;2.092;2023-12-28T12:14:27;101215.19;;;11.12;77.21
84653;BME280;74883;48.882;2.092;2023-12-28T12:16:54;101214.88;;;11.18;76.11
84653;BME280;74883;48.882;2.092;2023-12-28T12:19:24;101213.94;;;11.19;76.41
84653;BME280;74883;48.882;2.092;2023-12-28T12:21:54;101221.44;;;11.25;76.27
84653;BME280;74883;48.882;2.092;2023-12-28T12:24:20;101204.81;;;11.28;75.62
84653;BME280;74883;48.882;2.092;2023-12-28T12:26:46;101204.59;;;11.32;75.89
84653;BME280;74883;48.882;2.092;2023-12-28T12:29:12;101213.09;;;11.36;75.35
84653;BME280;74883;48.882;2.092;2023-12-28T12:31:39;101210.53;;;11.34;76.02
84653;BME280;74883;48.882;2.092;2023-12-28T12:34:07;101210.31;;;11.39;76.64
84653;BME280;74883;48.882;2.092;2023-12-28T12:36:33;101208.41;;;11.42;75.39
84653;BME280;74883;48.882;2.092;2023-12-28T12:38:59;101213.28;;;11.48;75.04
84653;BME280;74883;48.882;2.092;2023-12-28T12:41:25;101209.16;;;11.44;75.17
84653;BME280;74883;48.882;2.092;2023-12-28T12:43:51;101204.84;;;11.43;75.00
84653;BME280;74883;48.882;2.092;2023-12-28T12:46:17;101196.91;;;11.46;74.50
84653;BME280;74883;48.882;2.092;2023-12-28T12:48:42;101201.44;;;11.43;74.60
84653;BME280;74883;48.882;2.092;2023-12-28T12:51:08;101197.06;;;11.43;74.39
84653;BME280;74883;48.882;2.092;2023-12-28T12:53:36;101195.25;;;11.45;74.67